createdAt,value
2019-03-13T00:02:40.555Z,73.90
2019-03-13T00:05:21.234Z,75.10
2019-03-13T00:10:48.105Z,75.60
2019-03-13T00:13:29.175Z,76.20
2019-03-13T00:16:10.374Z,77.20
2019-03-13T00:18:51.135Z,77.60
2019-03-13T00:21:32.083Z,78.00
2019-03-13T00:24:13.350Z,77.90
2019-03-13T00:26:54.395Z,78.70
2019-03-13T00:29:54.601Z,79.20
2019-03-13T00:44:11.371Z,83.20
2019-03-13T00:46:55.710Z,80.50
2019-03-13T00:52:21.362Z,83.80
2019-03-13T01:00:53.742Z,83.30
2019-03-13T01:06:24.156Z,83.60
2019-03-13T01:11:51.063Z,81.20
2019-03-13T01:14:32.208Z,81.10
2019-03-13T01:23:34.839Z,81.80
2019-03-13T01:26:16.011Z,82.00
2019-03-13T01:28:57.051Z,82.10
2019-03-13T01:34:47.255Z,82.60
2019-03-13T01:37:28.391Z,83.40
2019-03-13T01:40:12.882Z,83.50
2019-03-13T01:45:38.715Z,83.10
2019-03-13T01:51:39.596Z,82.20
2019-03-13T01:57:05.368Z,82.40
2019-03-13T02:02:51.918Z,84.20
2019-03-13T02:05:32.629Z,83.90
2019-03-13T02:08:34.540Z,84.80
2019-03-13T02:11:15.876Z,86.00
2019-03-13T02:14:15.842Z,87.30
2019-03-13T02:16:57.060Z,88.60
2019-03-13T02:19:37.642Z,90.50
2019-03-13T02:25:02.511Z,94.00
2019-03-13T02:31:13.158Z,96.50
2019-03-13T02:36:39.845Z,99.60
2019-03-13T02:39:20.995Z,99.80
2019-03-13T02:42:01.894Z,99.90
2019-03-13T02:44:42.596Z,99.90
2019-03-13T02:47:27.346Z,99.90
2019-03-13T02:50:08.842Z,99.90
2019-03-13T02:52:49.797Z,99.90
2019-03-13T02:55:30.686Z,99.90
2019-03-13T03:04:22.977Z,99.90
2019-03-13T03:10:36.309Z,99.90
2019-03-13T03:13:36.583Z,99.90
2019-03-13T03:16:17.351Z,99.90
2019-03-13T03:18:58.029Z,99.90
2019-03-13T03:21:58.332Z,99.90
2019-03-13T03:24:39.901Z,99.90
2019-03-13T03:30:39.714Z,99.90
2019-03-13T03:33:20.644Z,99.90
2019-03-13T03:36:01.064Z,99.90
2019-03-13T03:38:41.755Z,99.90
2019-03-13T03:41:25.798Z,99.90
2019-03-13T03:46:51.145Z,99.90
2019-03-13T03:55:01.495Z,99.90
2019-03-13T03:57:42.457Z,99.90
2019-03-13T04:06:43.560Z,99.90
2019-03-13T04:09:24.559Z,99.90
2019-03-13T04:12:06.204Z,99.90
2019-03-13T04:14:47.178Z,99.90
2019-03-13T04:17:47.620Z,99.90
2019-03-13T04:20:28.386Z,99.90
2019-03-13T04:23:09.301Z,99.90
2019-03-13T04:28:34.514Z,99.90
2019-03-13T04:31:15.560Z,99.90
2019-03-13T04:34:15.527Z,99.90
2019-03-13T04:36:56.500Z,99.90
2019-03-13T04:39:37.622Z,99.90
2019-03-13T04:45:03.745Z,99.90
2019-03-13T04:47:44.459Z,99.90
2019-03-13T04:53:30.216Z,99.90
2019-03-13T04:56:30.134Z,99.90
2019-03-13T04:59:11.116Z,99.90
2019-03-13T05:01:51.715Z,99.90
2019-03-13T05:04:32.933Z,99.90
2019-03-13T05:09:59.071Z,99.90
2019-03-13T05:12:39.942Z,99.90
2019-03-13T05:18:25.425Z,99.90
2019-03-13T05:21:05.850Z,99.90
2019-03-13T05:23:46.362Z,99.90
2019-03-13T05:26:46.876Z,99.90
2019-03-13T05:29:27.850Z,99.90
2019-03-13T05:35:03.756Z,99.90
2019-03-13T05:40:28.971Z,99.90
2019-03-13T05:46:32.790Z,99.90
2019-03-13T05:51:58.057Z,99.90
2019-03-13T05:54:58.402Z,99.90
2019-03-13T05:57:58.772Z,99.90
2019-03-13T06:00:39.838Z,99.90
2019-03-13T06:03:24.195Z,99.90
2019-03-13T06:08:48.910Z,99.90
2019-03-13T06:11:30.113Z,99.90
2019-03-13T06:14:30.435Z,99.90
2019-03-13T06:19:56.624Z,99.90
2019-03-13T06:22:37.312Z,99.90
2019-03-13T06:25:18.106Z,99.90
2019-03-13T06:27:58.997Z,99.90
2019-03-13T06:30:40.271Z,99.90
2019-03-13T06:36:05.164Z,99.90
2019-03-13T06:42:03.176Z,99.90
2019-03-13T06:48:03.192Z,99.90
2019-03-13T06:50:44.502Z,99.90
2019-03-13T06:53:25.170Z,99.90
2019-03-13T07:02:21.045Z,99.90
2019-03-13T07:05:05.368Z,99.90
2019-03-13T07:07:51.025Z,99.90
2019-03-13T07:10:36.635Z,99.90
2019-03-13T07:16:29.939Z,99.90
2019-03-13T07:21:36.722Z,99.90
2019-03-13T07:24:22.434Z,99.90
2019-03-13T07:30:17.271Z,99.90
2019-03-13T07:38:47.483Z,99.90
2019-03-13T07:41:35.532Z,99.90
2019-03-13T07:44:34.732Z,99.90
2019-03-13T07:47:36.541Z,99.90
2019-03-13T07:59:25.551Z,98.20
2019-03-13T08:02:11.789Z,96.70
2019-03-13T08:04:54.652Z,95.00
2019-03-13T08:07:37.379Z,96.20
2019-03-13T08:13:42.143Z,93.30
2019-03-13T08:19:28.612Z,92.10
2019-03-13T08:25:32.243Z,86.70
2019-03-13T08:28:17.952Z,90.60
2019-03-13T08:31:01.168Z,87.40
2019-03-13T08:37:07.315Z,81.10
2019-03-13T08:39:52.863Z,80.70
2019-03-13T08:42:35.617Z,82.70
2019-03-13T08:51:08.046Z,81.20
2019-03-13T08:59:32.426Z,79.60
2019-03-13T09:05:24.549Z,81.10
2019-03-13T09:10:52.975Z,84.90
2019-03-13T09:16:42.638Z,87.90
2019-03-13T09:19:28.059Z,77.90
2019-03-13T09:22:31.321Z,76.40
2019-03-13T09:28:35.677Z,75.10
2019-03-13T09:37:32.175Z,77.30
2019-03-13T09:40:35.591Z,73.80
2019-03-13T09:43:17.840Z,74.90
2019-03-13T09:46:02.227Z,76.80
2019-03-13T09:54:44.264Z,78.10
2019-03-13T10:01:03.761Z,79.60
2019-03-13T10:06:50.337Z,82.40
2019-03-13T10:09:36.883Z,74.80
2019-03-13T10:15:24.064Z,77.00
2019-03-13T10:18:09.337Z,75.40
2019-03-13T10:24:05.563Z,74.30
2019-03-13T10:26:48.472Z,76.60
2019-03-13T10:29:30.920Z,77.40
2019-03-13T10:32:14.747Z,80.80
2019-03-13T10:35:14.737Z,82.20
2019-03-13T10:37:57.760Z,82.90
2019-03-13T10:46:29.810Z,85.50
2019-03-13T10:52:28.150Z,86.40
2019-03-13T10:55:13.474Z,85.20
2019-03-13T10:58:16.688Z,83.90
2019-03-13T11:04:03.904Z,83.20
2019-03-13T11:09:50.566Z,83.50
2019-03-13T11:12:33.596Z,84.20
2019-03-13T11:15:36.677Z,80.90
2019-03-13T11:21:31.035Z,82.60
2019-03-13T11:24:15.146Z,79.20
2019-03-13T11:39:35.704Z,84.20
2019-03-13T11:42:17.350Z,89.20
2019-03-13T11:48:04.778Z,99.60
2019-03-13T11:53:45.138Z,99.90
2019-03-13T12:02:45.264Z,99.90
2019-03-13T12:08:11.866Z,99.90
2019-03-13T12:10:58.174Z,99.90
2019-03-13T12:14:03.964Z,99.90
2019-03-13T12:16:49.346Z,99.90
2019-03-13T12:22:26.170Z,99.90
2019-03-13T12:25:29.401Z,99.00
2019-03-13T12:34:41.961Z,92.70
2019-03-13T12:40:09.066Z,84.00
2019-03-13T12:42:51.820Z,84.50
2019-03-13T12:51:51.187Z,79.90
2019-03-13T12:54:34.129Z,79.70
2019-03-13T12:57:16.704Z,75.20
2019-03-13T13:00:00.864Z,71.90
2019-03-13T13:06:05.633Z,65.80
2019-03-13T13:08:51.157Z,67.00
2019-03-13T13:11:33.789Z,68.40
2019-03-13T13:14:18.756Z,68.30
2019-03-13T13:17:04.317Z,67.10
2019-03-13T13:19:45.213Z,69.50
2019-03-13T13:22:26.211Z,70.50
2019-03-13T13:25:07.140Z,71.20
2019-03-13T13:27:48.053Z,69.70
2019-03-13T13:30:29.035Z,68.50
2019-03-13T13:35:56.123Z,72.20
2019-03-13T13:38:40.507Z,71.90
2019-03-13T13:41:21.581Z,70.20
2019-03-13T13:44:03.005Z,69.70
2019-03-13T13:46:44.686Z,69.60
2019-03-13T13:49:25.750Z,71.20
2019-03-13T13:52:06.559Z,70.50
2019-03-13T13:54:48.035Z,64.80
2019-03-13T14:00:14.450Z,64.10
2019-03-13T14:06:39.459Z,65.30
2019-03-13T14:12:05.510Z,65.10
2019-03-13T14:17:30.534Z,65.80
2019-03-13T14:20:11.173Z,66.90
2019-03-13T14:22:51.931Z,67.00
2019-03-13T14:25:32.765Z,67.00
2019-03-13T14:28:14.034Z,67.20
2019-03-13T14:30:54.888Z,68.00
2019-03-13T14:33:35.642Z,67.40
2019-03-13T14:39:02.208Z,66.20
2019-03-13T14:41:43.064Z,66.10
2019-03-13T14:44:24.096Z,66.00
2019-03-13T14:49:50.250Z,68.20
2019-03-13T14:52:31.174Z,69.00
2019-03-13T14:55:16.179Z,69.20
2019-03-13T14:57:56.765Z,69.60
2019-03-13T15:00:40.369Z,70.40
2019-03-13T15:03:21.467Z,71.20
2019-03-13T15:06:02.834Z,73.10
2019-03-13T15:08:43.600Z,74.60
2019-03-13T15:11:25.803Z,74.10
2019-03-13T15:14:06.897Z,72.90
2019-03-13T15:16:48.408Z,71.20
2019-03-13T15:19:29.514Z,71.60
2019-03-13T15:22:11.222Z,70.60
2019-03-13T15:24:53.205Z,71.50
2019-03-13T15:27:34.528Z,72.40
2019-03-13T15:30:16.176Z,71.80
2019-03-13T15:38:57.679Z,74.80
2019-03-13T15:41:38.501Z,75.00
2019-03-13T15:44:19.971Z,75.40
2019-03-13T15:47:01.061Z,76.10
2019-03-13T15:49:41.734Z,76.50
2019-03-13T15:52:23.736Z,77.50
2019-03-13T15:55:05.064Z,78.00
2019-03-13T15:57:46.008Z,79.50
2019-03-13T16:00:27.754Z,80.60
2019-03-13T16:03:08.914Z,80.40
2019-03-13T16:05:55.152Z,81.50
2019-03-13T16:08:36.181Z,81.90
2019-03-13T16:11:18.083Z,82.90
2019-03-13T16:14:00.179Z,82.60
2019-03-13T16:16:41.719Z,83.20
2019-03-13T16:19:24.045Z,82.90
2019-03-13T16:22:07.299Z,82.50
2019-03-13T16:24:48.929Z,83.50
2019-03-13T16:27:32.809Z,83.10
2019-03-13T16:30:13.851Z,83.90
2019-03-13T16:32:55.120Z,84.40
2019-03-13T16:35:36.119Z,84.50
2019-03-13T16:38:18.299Z,84.90
2019-03-13T16:41:00.457Z,85.90
2019-03-13T16:43:41.782Z,85.30
2019-03-13T16:46:22.468Z,87.40
2019-03-13T16:49:04.506Z,87.40
2019-03-13T16:51:45.651Z,88.40
2019-03-13T16:54:27.517Z,88.90
2019-03-13T16:57:08.823Z,89.50
2019-03-13T17:00:00.119Z,89.90
2019-03-13T17:02:32.278Z,90.20
2019-03-13T17:05:13.583Z,90.60
2019-03-13T17:07:54.668Z,91.30
2019-03-13T17:10:35.485Z,91.50
2019-03-13T17:13:16.347Z,92.00
2019-03-13T17:15:57.664Z,92.60
2019-03-13T17:18:38.712Z,93.90
2019-03-13T17:21:19.985Z,94.30
2019-03-13T17:24:00.622Z,95.40
2019-03-13T17:26:42.105Z,95.50
2019-03-13T17:29:23.402Z,96.20
2019-03-13T17:32:04.983Z,97.50
2019-03-13T17:34:47.902Z,99.60
2019-03-13T17:37:28.185Z,99.40
2019-03-13T17:40:09.168Z,99.90
2019-03-13T17:42:50.173Z,99.90
2019-03-13T17:48:16.134Z,99.90
2019-03-13T17:50:56.660Z,99.90
2019-03-13T17:53:37.104Z,99.90
2019-03-13T17:56:18.334Z,99.90
2019-03-13T17:59:00.496Z,99.90
2019-03-13T18:04:21.255Z,99.90
2019-03-13T18:07:02.093Z,99.90
2019-03-13T18:09:43.248Z,99.90
2019-03-13T18:12:23.715Z,99.90
2019-03-13T18:15:04.565Z,99.90
2019-03-13T18:20:33.490Z,99.90
2019-03-13T18:23:14.121Z,99.90
2019-03-13T18:25:54.998Z,99.90
2019-03-13T18:28:35.763Z,99.90
2019-03-13T18:31:16.515Z,99.90
2019-03-13T18:33:57.082Z,99.90
2019-03-13T18:36:37.839Z,99.90
2019-03-13T18:39:18.516Z,99.90
2019-03-13T18:41:59.198Z,99.90
2019-03-13T18:44:40.079Z,99.90
2019-03-13T18:47:20.584Z,99.90
2019-03-13T18:50:01.148Z,99.90
2019-03-13T18:52:41.664Z,99.90
2019-03-13T18:55:22.382Z,99.90
2019-03-13T18:58:03.070Z,99.90
2019-03-13T19:00:44.176Z,99.90
2019-03-13T19:06:11.901Z,99.90
2019-03-13T19:08:52.506Z,99.90
2019-03-13T19:11:33.868Z,99.90
2019-03-13T19:14:14.330Z,99.90
2019-03-13T19:16:54.664Z,99.90
2019-03-13T19:19:35.028Z,99.90
2019-03-13T19:25:35.121Z,99.90
2019-03-13T19:31:04.982Z,99.90
2019-03-13T19:33:45.902Z,99.90
2019-03-13T19:36:26.374Z,99.90
2019-03-13T19:39:07.167Z,99.90
2019-03-13T19:41:47.966Z,99.90
2019-03-13T19:44:29.006Z,99.90
2019-03-13T19:47:09.816Z,99.90
2019-03-13T19:49:50.863Z,99.90
2019-03-13T19:52:31.818Z,99.90
2019-03-13T19:55:12.539Z,99.90
2019-03-13T20:00:40.305Z,99.90
2019-03-13T20:06:06.280Z,99.90
2019-03-13T20:11:32.399Z,99.90
2019-03-13T20:17:06.151Z,99.90
2019-03-13T20:19:47.209Z,99.90
2019-03-13T20:22:28.451Z,99.90
2019-03-13T20:25:09.399Z,99.90
2019-03-13T20:27:50.384Z,99.90
2019-03-13T20:30:31.073Z,99.90
2019-03-13T20:33:12.073Z,99.90
2019-03-13T20:35:52.920Z,99.90
2019-03-13T20:38:34.015Z,99.90
2019-03-13T20:41:16.457Z,99.90
2019-03-13T20:43:57.296Z,99.90
2019-03-13T20:46:39.113Z,99.90
2019-03-13T20:49:21.559Z,99.90
2019-03-13T20:52:02.407Z,99.90
2019-03-13T20:54:45.655Z,99.90
2019-03-13T21:00:11.163Z,99.90
2019-03-13T21:02:52.257Z,99.90
2019-03-13T21:05:33.073Z,99.90
2019-03-13T21:08:16.003Z,99.90
2019-03-13T21:13:42.471Z,99.90
2019-03-13T21:16:23.227Z,99.90
2019-03-13T21:19:04.552Z,99.90
2019-03-13T21:24:32.859Z,99.90
2019-03-13T21:27:14.134Z,99.90
2019-03-13T21:29:56.510Z,99.90
2019-03-13T21:32:37.777Z,99.90
2019-03-13T21:35:20.225Z,99.90
2019-03-13T21:38:01.372Z,99.90
2019-03-13T21:40:42.255Z,99.90
2019-03-13T21:43:23.003Z,99.90
2019-03-13T21:46:06.598Z,99.90
2019-03-13T21:48:48.340Z,99.90
2019-03-13T21:51:29.950Z,99.90
2019-03-13T21:54:11.431Z,99.90
2019-03-13T22:00:03.400Z,99.90
2019-03-13T22:02:46.861Z,99.90
2019-03-13T22:05:29.037Z,99.90
2019-03-13T22:08:10.143Z,99.90
2019-03-13T22:10:51.107Z,99.90
2019-03-13T22:13:32.469Z,99.90
2019-03-13T22:16:13.464Z,99.90
2019-03-13T22:18:54.360Z,99.90
2019-03-13T22:21:34.945Z,99.90
2019-03-13T22:24:15.568Z,99.90
2019-03-13T22:26:56.371Z,99.90
2019-03-13T22:32:26.948Z,99.90
2019-03-13T22:35:07.960Z,99.90
2019-03-13T22:37:49.393Z,99.90
2019-03-13T22:40:30.144Z,99.90
2019-03-13T22:43:11.592Z,99.90
2019-03-13T22:48:42.100Z,99.90
2019-03-13T22:51:23.490Z,99.90
2019-03-13T22:54:05.456Z,99.90
2019-03-13T22:56:46.121Z,99.90
2019-03-13T22:59:27.261Z,99.90
2019-03-13T23:04:56.931Z,99.90
2019-03-13T23:10:27.636Z,99.90
2019-03-13T23:15:58.040Z,99.90
2019-03-13T23:21:23.376Z,99.90
2019-03-13T23:24:04.446Z,99.90
2019-03-13T23:26:45.555Z,99.90
2019-03-13T23:32:11.334Z,99.90
2019-03-13T23:37:41.752Z,99.90
2019-03-13T23:40:22.689Z,99.90
2019-03-13T23:43:03.356Z,99.90
2019-03-13T23:45:44.930Z,99.90
2019-03-13T23:51:29.329Z,99.90
2019-03-13T23:54:09.814Z,99.90
2019-03-13T23:56:51.276Z,99.90
2019-03-13T23:59:32.059Z,99.90
